createdAt,value
2022-11-05T00:00:29.814Z,10.86
2022-11-05T00:03:16.044Z,10.95
2022-11-05T00:06:05.211Z,11.02
2022-11-05T00:08:51.111Z,10.69
2022-11-05T00:11:18.625Z,10.68
2022-11-05T00:14:04.704Z,10.79
2022-11-05T00:16:46.562Z,10.75
2022-11-05T00:19:14.903Z,10.74
2022-11-05T00:22:05.055Z,10.95
2022-11-05T00:24:54.218Z,10.78
2022-11-05T00:27:21.481Z,10.80
2022-11-05T00:29:48.625Z,10.82
2022-11-05T00:32:16.305Z,10.55
2022-11-05T00:34:43.274Z,10.83
2022-11-05T00:37:10.342Z,10.90
2022-11-05T00:39:37.432Z,10.96
2022-11-05T00:42:23.142Z,10.74
2022-11-05T00:45:00.972Z,10.86
2022-11-05T00:47:47.590Z,10.97
2022-11-05T00:50:14.915Z,10.88
2022-11-05T00:52:57.801Z,10.74
2022-11-05T00:55:46.110Z,10.89
2022-11-05T00:58:22.742Z,10.92
2022-11-05T01:00:56.180Z,11.01
2022-11-05T01:03:31.688Z,10.90
2022-11-05T01:06:10.563Z,10.71
2022-11-05T01:08:38.328Z,10.93
2022-11-05T01:11:37.256Z,10.72
2022-11-05T01:14:08.622Z,10.93
2022-11-05T01:16:36.605Z,10.97
2022-11-05T01:19:06.096Z,10.86
2022-11-05T01:21:33.847Z,10.97
2022-11-05T01:24:01.273Z,11.02
2022-11-05T01:26:28.459Z,10.94
2022-11-05T01:28:57.845Z,11.26
2022-11-05T01:31:25.143Z,10.79
2022-11-05T01:33:52.090Z,10.90
2022-11-05T01:36:19.495Z,10.98
2022-11-05T01:38:46.442Z,11.18
2022-11-05T01:41:13.411Z,10.85
2022-11-05T01:43:56.659Z,10.88
2022-11-05T01:46:33.835Z,10.92
2022-11-05T01:49:17.315Z,11.25
2022-11-05T01:51:46.191Z,11.02
2022-11-05T01:54:18.669Z,10.93
2022-11-05T01:56:53.244Z,10.86
2022-11-05T01:59:35.101Z,10.99
2022-11-05T02:02:03.791Z,10.97
2022-11-05T02:04:36.269Z,10.76
2022-11-05T02:07:06.306Z,10.75
2022-11-05T02:10:03.443Z,10.73
2022-11-05T02:12:33.062Z,10.61
2022-11-05T02:15:00.479Z,10.75
2022-11-05T02:17:35.964Z,10.68
2022-11-05T02:20:11.802Z,10.88
2022-11-05T02:23:19.335Z,11.03
2022-11-05T02:26:37.559Z,10.72
2022-11-05T02:29:29.894Z,10.66
2022-11-05T02:32:24.875Z,10.70
2022-11-05T02:35:31.926Z,10.65
2022-11-05T02:38:37.574Z,10.63
2022-11-05T02:41:21.796Z,10.58
2022-11-05T02:44:20.259Z,10.47
2022-11-05T02:46:57.300Z,10.55
2022-11-05T02:49:59.298Z,10.56
2022-11-05T02:53:03.243Z,10.85
2022-11-05T02:56:15.228Z,10.72
2022-11-05T02:58:42.211Z,10.67
2022-11-05T03:06:22.282Z,10.57
2022-11-05T03:09:10.599Z,10.69
2022-11-05T03:12:24.331Z,10.71
2022-11-05T03:15:41.523Z,10.86
2022-11-05T03:18:39.485Z,10.95
2022-11-05T03:21:24.961Z,10.76
2022-11-05T03:24:03.362Z,11.05
2022-11-05T03:26:37.998Z,11.01
2022-11-05T03:29:11.566Z,10.87
2022-11-05T03:31:40.903Z,11.06
2022-11-05T03:34:11.173Z,11.12
2022-11-05T03:36:44.320Z,10.85
2022-11-05T03:39:29.540Z,11.25
2022-11-05T03:41:59.130Z,11.33
2022-11-05T03:44:33.113Z,11.38
2022-11-05T03:47:13.974Z,11.39
2022-11-05T03:50:07.620Z,11.15
2022-11-05T03:52:51.428Z,10.94
2022-11-05T03:55:19.015Z,11.20
2022-11-05T03:57:51.284Z,11.22
2022-11-05T04:00:18.532Z,11.31
2022-11-05T04:02:45.624Z,11.28
2022-11-05T04:05:12.990Z,11.22
2022-11-05T04:07:58.436Z,11.21
2022-11-05T04:10:43.881Z,11.57
2022-11-05T04:13:27.928Z,11.42
2022-11-05T04:16:15.485Z,11.19
2022-11-05T04:18:42.969Z,11.12
2022-11-05T04:21:30.318Z,11.51
2022-11-05T04:24:10.102Z,11.71
2022-11-05T04:26:41.091Z,11.79
2022-11-05T04:29:27.297Z,11.65
2022-11-05T04:31:55.278Z,11.29
2022-11-05T04:34:22.954Z,11.40
2022-11-05T04:36:53.277Z,11.49
2022-11-05T04:39:21.503Z,11.61
2022-11-05T04:41:49.064Z,11.51
2022-11-05T04:44:17.192Z,11.67
2022-11-05T04:46:44.321Z,11.59
2022-11-05T04:49:11.273Z,11.58
2022-11-05T04:51:38.517Z,11.46
2022-11-05T04:54:05.712Z,11.40
2022-11-05T04:56:32.840Z,11.54
2022-11-05T04:58:59.938Z,11.56
2022-11-05T05:01:27.234Z,11.68
2022-11-05T05:03:55.632Z,11.38
2022-11-05T05:06:23.049Z,11.57
2022-11-05T05:08:51.600Z,11.53
2022-11-05T05:11:21.296Z,11.59
2022-11-05T05:13:49.336Z,11.65
2022-11-05T05:16:23.426Z,11.80
2022-11-05T05:18:51.678Z,11.20
2022-11-05T05:21:39.179Z,11.39
2022-11-05T05:24:33.847Z,11.90
2022-11-05T05:27:01.449Z,11.74
2022-11-05T05:29:28.389Z,11.35
2022-11-05T05:31:55.462Z,11.02
2022-11-05T05:34:22.726Z,11.29
2022-11-05T05:36:49.693Z,10.95
2022-11-05T05:39:16.984Z,11.04
2022-11-05T05:41:43.917Z,10.67
2022-11-05T05:44:11.056Z,11.15
2022-11-05T05:46:38.039Z,11.53
2022-11-05T05:49:11.079Z,11.63
2022-11-05T05:51:39.599Z,11.72
2022-11-05T05:54:06.793Z,11.67
2022-11-05T05:56:33.705Z,11.66
2022-11-05T05:59:00.659Z,11.66
2022-11-05T06:01:27.839Z,11.61
2022-11-05T06:03:54.789Z,11.80
2022-11-05T06:06:22.678Z,11.57
2022-11-05T06:08:49.722Z,11.61
2022-11-05T06:11:17.146Z,11.44
2022-11-05T06:13:44.127Z,11.47
2022-11-05T06:16:11.412Z,11.42
2022-11-05T06:18:38.995Z,10.86
2022-11-05T06:21:12.662Z,11.47
2022-11-05T06:23:42.334Z,11.68
2022-11-05T06:26:17.145Z,11.25
2022-11-05T06:28:45.278Z,11.35
2022-11-05T06:31:14.518Z,11.14
2022-11-05T06:33:41.722Z,11.53
2022-11-05T06:36:13.846Z,11.56
2022-11-05T06:38:40.863Z,11.47
2022-11-05T06:41:10.502Z,11.48
2022-11-05T06:43:38.413Z,11.13
2022-11-05T06:46:06.106Z,11.01
2022-11-05T06:48:33.504Z,11.52
2022-11-05T06:51:00.907Z,11.76
2022-11-05T06:53:28.113Z,11.07
2022-11-05T06:55:55.335Z,11.47
2022-11-05T06:58:22.775Z,11.53
2022-11-05T07:00:49.910Z,11.75
2022-11-05T07:03:17.389Z,11.55
2022-11-05T07:05:48.399Z,11.30
2022-11-05T07:08:16.255Z,11.56
2022-11-05T07:10:43.424Z,11.79
2022-11-05T07:13:11.225Z,11.82
2022-11-05T07:15:38.511Z,11.95
2022-11-05T07:18:09.599Z,12.15
2022-11-05T07:20:36.550Z,11.07
2022-11-05T07:23:12.262Z,11.67
2022-11-05T07:25:40.479Z,11.66
2022-11-05T07:28:08.564Z,12.09
2022-11-05T07:30:36.470Z,12.13
2022-11-05T07:33:04.482Z,12.16
2022-11-05T07:35:32.040Z,12.22
2022-11-05T07:37:59.407Z,12.11
2022-11-05T07:40:29.465Z,12.06
2022-11-05T07:43:00.115Z,12.06
2022-11-05T07:45:29.064Z,11.46
2022-11-05T07:48:00.700Z,11.81
2022-11-05T07:50:34.350Z,12.09
2022-11-05T07:53:10.024Z,11.98
2022-11-05T07:55:37.676Z,11.76
2022-11-05T07:58:04.874Z,11.96
2022-11-05T08:00:32.807Z,12.05
2022-11-05T08:03:13.054Z,11.67
2022-11-05T08:05:44.605Z,12.60
2022-11-05T08:08:16.814Z,12.64
2022-11-05T08:10:44.392Z,12.56
2022-11-05T08:13:13.406Z,12.58
2022-11-05T08:15:42.247Z,13.05
2022-11-05T08:18:17.166Z,12.89
2022-11-05T08:20:46.406Z,12.54
2022-11-05T08:23:14.416Z,13.11
2022-11-05T08:25:42.066Z,13.35
2022-11-05T08:28:13.070Z,12.11
2022-11-05T08:30:40.582Z,12.99
2022-11-05T08:33:12.201Z,13.15
2022-11-05T08:35:39.868Z,13.04
2022-11-05T08:38:10.422Z,12.73
2022-11-05T08:40:37.970Z,13.18
2022-11-05T08:43:08.133Z,12.72
2022-11-05T08:45:39.316Z,12.97
2022-11-05T08:48:15.186Z,12.57
2022-11-05T08:50:43.372Z,12.45
2022-11-05T08:53:11.439Z,12.74
2022-11-05T08:55:39.135Z,13.12
2022-11-05T08:58:12.667Z,12.65
2022-11-05T09:00:40.033Z,12.59
2022-11-05T09:03:09.398Z,13.05
2022-11-05T09:05:39.901Z,12.90
2022-11-05T09:08:19.020Z,12.93
2022-11-05T09:10:47.457Z,13.07
2022-11-05T09:13:18.852Z,13.38
2022-11-05T09:15:49.302Z,13.54
2022-11-05T09:18:18.110Z,12.69
2022-11-05T09:20:46.793Z,12.98
2022-11-05T09:23:15.558Z,12.71
2022-11-05T09:25:43.404Z,12.51
2022-11-05T09:28:16.833Z,13.32
2022-11-05T09:30:50.613Z,13.09
2022-11-05T09:33:24.173Z,12.92
2022-11-05T09:35:52.795Z,12.70
2022-11-05T09:38:20.200Z,12.64
2022-11-05T09:40:52.962Z,12.88
2022-11-05T09:43:31.240Z,13.37
2022-11-05T09:46:04.540Z,12.83
2022-11-05T09:48:34.029Z,12.42
2022-11-05T09:51:01.276Z,13.44
2022-11-05T09:53:28.834Z,12.93
2022-11-05T09:55:59.005Z,13.31
2022-11-05T09:58:56.605Z,13.45
2022-11-05T10:01:33.797Z,13.37
2022-11-05T10:04:07.834Z,13.96
2022-11-05T10:06:37.063Z,13.03
2022-11-05T10:09:22.861Z,13.39
2022-11-05T10:12:10.864Z,13.89
2022-11-05T10:14:47.044Z,13.70
2022-11-05T10:17:24.713Z,13.63
2022-11-05T10:20:08.294Z,14.66
2022-11-05T10:22:36.407Z,14.42
2022-11-05T10:25:18.751Z,14.13
2022-11-05T10:27:53.532Z,14.36
2022-11-05T10:30:21.981Z,14.08
2022-11-05T10:32:52.069Z,14.28
2022-11-05T10:35:24.088Z,14.18
2022-11-05T10:37:53.514Z,13.37
2022-11-05T10:40:40.805Z,13.65
2022-11-05T10:43:21.547Z,14.09
2022-11-05T10:46:10.490Z,14.08
2022-11-05T10:49:15.240Z,13.38
2022-11-05T10:51:43.819Z,14.19
2022-11-05T10:54:24.324Z,13.92
2022-11-05T10:56:51.729Z,14.43
2022-11-05T10:59:30.687Z,14.43
2022-11-05T11:02:11.569Z,13.77
2022-11-05T11:04:38.702Z,13.79
2022-11-05T11:07:17.617Z,14.09
2022-11-05T11:09:49.358Z,13.45
2022-11-05T11:12:23.582Z,14.11
2022-11-05T11:15:08.171Z,13.96
2022-11-05T11:17:35.148Z,14.34
2022-11-05T11:20:20.760Z,14.59
2022-11-05T11:23:05.832Z,14.11
2022-11-05T11:25:52.917Z,14.21
2022-11-05T11:28:30.879Z,14.59
2022-11-05T11:31:21.259Z,14.91
2022-11-05T11:33:52.944Z,14.32
2022-11-05T11:36:27.175Z,14.91
2022-11-05T11:39:01.234Z,14.92
2022-11-05T11:41:39.381Z,14.83
2022-11-05T11:44:20.875Z,14.97
2022-11-05T11:46:56.657Z,14.42
2022-11-05T11:49:36.905Z,14.26
2022-11-05T11:52:11.241Z,13.89
2022-11-05T11:54:38.281Z,13.86
2022-11-05T11:57:29.555Z,13.98
2022-11-05T12:00:14.096Z,14.64
2022-11-05T12:03:02.485Z,14.51
2022-11-05T12:05:47.954Z,13.79
2022-11-05T12:09:00.592Z,13.31
2022-11-05T12:11:50.788Z,13.44
2022-11-05T12:14:30.655Z,13.78
2022-11-05T12:17:18.746Z,13.97
2022-11-05T12:19:57.342Z,14.07
2022-11-05T12:23:30.622Z,14.19
2022-11-05T12:26:33.980Z,14.99
2022-11-05T12:29:22.304Z,15.24
2022-11-05T12:32:26.148Z,14.49
2022-11-05T12:35:05.086Z,14.81
2022-11-05T12:37:53.333Z,14.97
2022-11-05T12:40:50.451Z,14.21
2022-11-05T12:43:37.940Z,14.28
2022-11-05T12:46:45.979Z,13.73
2022-11-05T12:49:31.929Z,13.54
2022-11-05T12:52:19.308Z,13.98
2022-11-05T12:55:14.021Z,13.52
2022-11-05T12:57:44.288Z,14.22
2022-11-05T13:00:23.270Z,14.51
2022-11-05T13:03:20.932Z,14.36
2022-11-05T13:06:10.873Z,14.41
2022-11-05T13:08:57.686Z,13.32
2022-11-05T13:11:41.427Z,14.03
2022-11-05T13:14:33.553Z,14.61
2022-11-05T13:17:11.388Z,14.15
2022-11-05T13:20:19.805Z,13.92
2022-11-05T13:22:55.126Z,13.71
2022-11-05T13:25:29.153Z,13.73
2022-11-05T13:28:46.817Z,13.68
2022-11-05T13:31:20.884Z,12.76
2022-11-05T13:33:51.255Z,12.94
2022-11-05T13:36:50.589Z,12.57
2022-11-05T13:39:43.669Z,12.22
2022-11-05T13:42:44.403Z,12.32
2022-11-05T13:45:52.644Z,12.66
2022-11-05T13:48:56.166Z,12.76
2022-11-05T13:51:39.693Z,12.94
2022-11-05T13:54:46.121Z,12.80
2022-11-05T13:58:00.673Z,13.03
2022-11-05T14:00:33.699Z,12.65
2022-11-05T14:03:14.877Z,12.93
2022-11-05T14:05:43.343Z,12.90
2022-11-05T14:08:27.802Z,13.14
2022-11-05T14:11:13.549Z,12.94
2022-11-05T14:13:44.506Z,13.07
2022-11-05T14:16:25.731Z,13.47
2022-11-05T14:19:18.626Z,13.73
2022-11-05T14:21:59.439Z,13.92
2022-11-05T14:24:44.136Z,13.65
2022-11-05T14:27:14.364Z,13.34
2022-11-05T14:29:47.789Z,13.15
2022-11-05T14:32:50.178Z,13.78
2022-11-05T14:35:17.318Z,13.40
2022-11-05T14:37:59.209Z,13.52
2022-11-05T14:40:42.565Z,13.63
2022-11-05T14:43:23.532Z,13.44
2022-11-05T14:46:02.383Z,13.22
2022-11-05T14:48:48.145Z,13.07
2022-11-05T14:51:27.070Z,12.94
2022-11-05T14:54:32.118Z,12.94
2022-11-05T14:57:02.487Z,12.79
2022-11-05T14:59:31.731Z,13.01
2022-11-05T15:02:15.883Z,12.71
2022-11-05T15:04:45.611Z,12.86
2022-11-05T15:07:36.265Z,13.19
2022-11-05T15:10:13.556Z,12.68
2022-11-05T15:12:51.729Z,12.95
2022-11-05T15:15:30.694Z,13.28
2022-11-05T15:18:35.406Z,13.28
2022-11-05T15:21:05.022Z,12.98
2022-11-05T15:23:47.435Z,12.99
2022-11-05T15:27:01.919Z,12.67
2022-11-05T15:29:31.923Z,12.55
2022-11-05T15:31:59.930Z,12.62
2022-11-05T15:34:33.986Z,12.59
2022-11-05T15:37:12.339Z,12.46
2022-11-05T15:39:40.683Z,12.57
2022-11-05T15:42:23.053Z,12.30
2022-11-05T15:45:00.359Z,11.90
2022-11-05T15:47:34.223Z,12.51
2022-11-05T15:50:15.581Z,12.44
2022-11-05T15:52:53.198Z,12.31
2022-11-05T15:55:24.456Z,12.24
2022-11-05T15:58:06.338Z,12.21
2022-11-05T16:00:36.747Z,12.05
2022-11-05T16:03:12.471Z,12.57
2022-11-05T16:05:47.227Z,12.40
2022-11-05T16:08:22.419Z,12.57
2022-11-05T16:10:53.483Z,12.28
2022-11-05T16:13:41.778Z,12.30
2022-11-05T16:16:14.653Z,11.95
2022-11-05T16:18:43.716Z,12.11
2022-11-05T16:21:18.963Z,11.38
2022-11-05T16:23:58.193Z,11.46
2022-11-05T16:29:40.947Z,11.94
2022-11-05T16:32:39.058Z,12.12
2022-11-05T16:35:16.295Z,11.94
2022-11-05T16:37:46.372Z,11.85
2022-11-05T16:40:25.532Z,11.91
2022-11-05T16:42:54.112Z,11.94
2022-11-05T16:45:24.846Z,11.63
2022-11-05T16:47:52.210Z,11.43
2022-11-05T16:50:27.400Z,11.47
2022-11-05T16:52:54.469Z,11.58
2022-11-05T16:55:21.615Z,11.46
2022-11-05T16:57:54.460Z,11.46
2022-11-05T17:00:22.688Z,11.35
2022-11-05T17:02:50.335Z,11.47
2022-11-05T17:05:30.377Z,11.45
2022-11-05T17:07:58.139Z,11.67
2022-11-05T17:10:26.785Z,11.55
2022-11-05T17:12:54.029Z,11.52
2022-11-05T17:15:36.501Z,11.24
2022-11-05T17:18:05.602Z,10.96
2022-11-05T17:20:48.966Z,11.17
2022-11-05T17:23:20.941Z,11.00
2022-11-05T17:25:56.473Z,10.74
2022-11-05T17:28:23.762Z,11.07
2022-11-05T17:30:53.878Z,11.07
2022-11-05T17:33:23.142Z,11.05
2022-11-05T17:35:50.622Z,10.98
2022-11-05T17:38:18.038Z,10.75
2022-11-05T17:40:45.325Z,10.47
2022-11-05T17:43:12.560Z,10.11
2022-11-05T17:45:46.174Z,9.99
2022-11-05T17:48:14.797Z,10.37
2022-11-05T17:50:43.868Z,9.60
2022-11-05T17:53:13.490Z,9.71
2022-11-05T17:55:42.812Z,9.49
2022-11-05T17:58:10.573Z,9.60
2022-11-05T18:00:39.390Z,9.81
2022-11-05T18:03:06.526Z,9.55
2022-11-05T18:05:35.017Z,9.58
2022-11-05T18:08:02.407Z,9.60
2022-11-05T18:10:29.978Z,9.22
2022-11-05T18:12:57.440Z,9.67
2022-11-05T18:15:24.522Z,9.51
2022-11-05T18:17:51.493Z,9.88
2022-11-05T18:20:19.751Z,9.62
2022-11-05T18:22:50.045Z,9.29
2022-11-05T18:25:17.835Z,10.14
2022-11-05T18:27:45.419Z,9.65
2022-11-05T18:30:15.672Z,9.75
2022-11-05T18:32:44.159Z,10.26
2022-11-05T18:35:13.164Z,10.03
2022-11-05T18:37:40.749Z,9.67
2022-11-05T18:40:08.513Z,9.95
2022-11-05T18:42:35.738Z,10.06
2022-11-05T18:45:04.839Z,9.96
2022-11-05T18:47:33.985Z,10.13
2022-11-05T18:50:02.013Z,9.78
2022-11-05T18:52:31.549Z,8.99
2022-11-05T18:54:59.387Z,9.66
2022-11-05T18:57:27.682Z,9.69
2022-11-05T18:59:56.019Z,10.13
2022-11-05T19:02:23.836Z,10.10
2022-11-05T19:05:14.442Z,9.39
2022-11-05T19:07:39.216Z,9.11
2022-11-05T19:10:07.469Z,8.32
2022-11-05T19:12:34.512Z,8.77
2022-11-05T19:15:02.986Z,8.53
2022-11-05T19:17:33.261Z,8.52
2022-11-05T19:20:00.960Z,8.69
2022-11-05T19:22:28.407Z,8.31
2022-11-05T19:24:55.405Z,7.98
2022-11-05T19:27:23.266Z,8.36
2022-11-05T19:29:50.319Z,8.23
2022-11-05T19:32:17.733Z,8.54
2022-11-05T19:34:44.706Z,8.56
2022-11-05T19:37:12.348Z,8.34
2022-11-05T19:39:40.455Z,8.05
2022-11-05T19:42:07.405Z,8.50
2022-11-05T19:44:34.442Z,8.23
2022-11-05T19:47:01.385Z,8.15
2022-11-05T19:49:28.714Z,8.07
2022-11-05T19:51:55.951Z,7.52
2022-11-05T19:54:23.048Z,7.82
2022-11-05T19:56:51.829Z,7.71
2022-11-05T19:59:19.037Z,8.11
2022-11-05T20:01:49.380Z,7.41
2022-11-05T20:04:16.456Z,7.52
2022-11-05T20:06:43.367Z,7.48
2022-11-05T20:09:22.722Z,7.73
2022-11-05T20:11:53.772Z,7.46
2022-11-05T20:14:21.097Z,7.59
2022-11-05T20:16:51.574Z,7.37
2022-11-05T20:19:21.419Z,7.49
2022-11-05T20:21:48.814Z,7.18
2022-11-05T20:24:24.288Z,7.25
2022-11-05T20:26:54.173Z,7.03
2022-11-05T20:29:22.303Z,7.11
2022-11-05T20:31:50.269Z,7.70
2022-11-05T20:34:17.216Z,7.63
2022-11-05T20:36:44.168Z,7.70
2022-11-05T20:39:12.116Z,7.51
2022-11-05T20:41:39.083Z,7.06
2022-11-05T20:44:06.301Z,6.57
2022-11-05T20:46:33.961Z,6.75
2022-11-05T20:49:01.049Z,6.62
2022-11-05T20:51:27.974Z,6.81
2022-11-05T20:53:59.555Z,7.18
2022-11-05T20:56:31.269Z,6.92
2022-11-05T20:59:00.029Z,5.99
2022-11-05T21:01:33.674Z,6.47
2022-11-05T21:04:01.168Z,6.73
2022-11-05T21:06:28.308Z,6.48
2022-11-05T21:08:55.449Z,6.27
2022-11-05T21:11:22.827Z,6.57
2022-11-05T21:13:50.088Z,7.05
2022-11-05T21:16:19.092Z,6.65
2022-11-05T21:18:47.684Z,6.74
2022-11-05T21:21:20.911Z,5.99
2022-11-05T21:23:48.328Z,6.42
2022-11-05T21:26:17.734Z,6.13
2022-11-05T21:28:44.767Z,7.34
2022-11-05T21:31:12.009Z,6.77
2022-11-05T21:33:39.200Z,6.81
2022-11-05T21:36:12.897Z,6.61
2022-11-05T21:38:40.999Z,7.24
2022-11-05T21:41:10.414Z,6.12
2022-11-05T21:43:39.610Z,6.58
2022-11-05T21:46:06.536Z,6.47
2022-11-05T21:48:33.969Z,6.02
2022-11-05T21:51:19.773Z,6.24
2022-11-05T21:54:05.951Z,6.12
2022-11-05T21:56:52.305Z,6.15
2022-11-05T21:59:42.246Z,6.01
2022-11-05T22:02:13.103Z,6.13
2022-11-05T22:04:44.196Z,5.47
2022-11-05T22:07:14.904Z,5.47
2022-11-05T22:09:42.949Z,5.51
2022-11-05T22:12:10.850Z,5.98
2022-11-05T22:14:38.099Z,5.97
2022-11-05T22:17:07.534Z,5.82
2022-11-05T22:19:35.599Z,5.74
2022-11-05T22:22:05.127Z,5.75
2022-11-05T22:24:33.302Z,6.31
2022-11-05T22:27:02.902Z,6.25
2022-11-05T22:29:30.249Z,6.35
2022-11-05T22:31:57.219Z,5.24
2022-11-05T22:34:25.723Z,5.77
2022-11-05T22:36:53.435Z,6.28
2022-11-05T22:39:21.088Z,5.34
2022-11-05T22:41:49.665Z,5.96
2022-11-05T22:44:17.251Z,5.80
2022-11-05T22:46:44.534Z,5.03
2022-11-05T22:49:12.134Z,5.08
2022-11-05T22:51:40.202Z,5.91
2022-11-05T22:54:08.061Z,5.65
2022-11-05T22:56:39.265Z,5.60
2022-11-05T22:59:12.051Z,5.74
2022-11-05T23:01:43.505Z,5.59
2022-11-05T23:04:11.611Z,6.33
2022-11-05T23:06:57.666Z,5.49
2022-11-05T23:09:50.978Z,5.78
2022-11-05T23:12:37.920Z,5.69
2022-11-05T23:15:07.621Z,5.44
2022-11-05T23:17:53.245Z,5.59
2022-11-05T23:20:41.877Z,6.31
2022-11-05T23:23:31.457Z,5.38
2022-11-05T23:26:00.072Z,4.95
2022-11-05T23:28:27.188Z,6.00
2022-11-05T23:31:12.571Z,6.05
2022-11-05T23:33:39.803Z,6.29
2022-11-05T23:36:25.842Z,6.21
2022-11-05T23:38:53.019Z,6.05
2022-11-05T23:41:41.707Z,5.76
2022-11-05T23:44:28.166Z,5.20
2022-11-05T23:47:15.966Z,5.16
2022-11-05T23:49:43.110Z,5.42
2022-11-05T23:52:10.143Z,5.37
2022-11-05T23:54:37.161Z,5.48
2022-11-05T23:57:04.652Z,5.03
2022-11-05T23:59:31.686Z,5.51
